Time;durP1;ratioP1;P1;durP2;ratioP2;P2;SDS_P1;SDS_P2;PMS_P1;PMS_P2;Temp;Humidity;BMP_temperature;BMP_pressure;BME280_temperature;BME280_humidity;BME280_pressure;Samples;Min_cycle;Max_cycle;Signal;HPM_P1;HPM_P2
2021/12/17 00:00:32;;;;;;;29.95;21.20;;;;;;;;;;5068229;27;93555;-73
2021/12/17 00:08:29;;;;;;;36.22;23.05;;;;;;;;;;5029478;27;95079;-74
2021/12/17 00:10:55;;;;;;;44.85;26.13;;;;;;;;;;5064625;27;93468;-74
2021/12/17 00:13:23;;;;;;;48.28;26.50;;;;;;;;;;5066577;27;92234;-74
2021/12/17 00:15:49;;;;;;;34.63;23.90;;;;;;;;;;5064858;27;93630;-74
2021/12/17 00:18:50;;;;;;;41.65;22.52;;;;;;;;;;5063959;27;93644;-74
2021/12/17 00:48:35;;;;;;;36.75;23.55;;;;;;;;;;5062760;27;91941;-73
2021/12/17 00:53:51;;;;;;;29.60;20.83;;;;;;;;;;5061862;27;94152;-73
2021/12/17 00:56:17;;;;;;;39.80;22.35;;;;;;;;;;5060406;27;94746;-74
2021/12/17 00:58:44;;;;;;;33.58;22.42;;;;;;;;;;5061614;27;98463;-73
2021/12/17 01:01:11;;;;;;;42.05;24.80;;;;;;;;;;5061585;27;95883;-73
2021/12/17 01:03:38;;;;;;;37.72;22.55;;;;;;;;;;5061951;27;92337;-73
2021/12/17 01:06:04;;;;;;;51.33;26.48;;;;;;;;;;5079687;27;93490;-75
2021/12/17 01:08:31;;;;;;;51.28;28.17;;;;;;;;;;5064784;27;95870;-74
2021/12/17 01:10:59;;;;;;;50.15;28.15;;;;;;;;;;5061446;27;95074;-74
2021/12/17 01:13:44;;;;;;;54.63;29.50;;;;;;;;;;5079161;27;91821;-73
2021/12/17 01:16:46;;;;;;;47.80;26.60;;;;;;;;;;5079108;27;92210;-74
2021/12/17 01:19:45;;;;;;;57.60;30.80;;;;;;;;;;5061471;27;95159;-74
2021/12/17 01:25:14;;;;;;;57.95;28.33;;;;;;;;;;5079747;27;92749;-74
2021/12/17 01:37:32;;;;;;;59.80;31.63;;;;;;;;;;5078444;27;92621;-73
2021/12/17 01:42:27;;;;;;;62.70;32.83;;;;;;;;;;5061719;27;94819;-74
2021/12/17 01:44:54;;;;;;;55.80;31.50;;;;;;;;;;5079282;27;92863;-73
2021/12/17 01:47:20;;;;;;;67.03;32.78;;;;;;;;;;5060821;27;92728;-74
2021/12/17 02:00:40;;;;;;;70.85;32.55;;;;;;;;;;5060912;27;92433;-73
2021/12/17 02:03:07;;;;;;;68.15;35.10;;;;;;;;;;5060995;27;95222;-73
2021/12/17 02:05:34;;;;;;;66.57;34.10;;;;;;;;;;5079144;27;93528;-73
2021/12/17 02:08:01;;;;;;;77.10;37.25;;;;;;;;;;5079468;27;91560;-74
2021/12/17 02:32:17;;;;;;;87.07;37.45;;;;;;;;;;5060489;27;95442;-72
2021/12/17 02:37:20;;;;;;;76.30;38.83;;;;;;;;;;5060063;27;92920;-72
2021/12/17 02:45:32;;;;;;;66.45;34.58;;;;;;;;;;5078379;27;95919;-72
2021/12/17 02:48:01;;;;;;;61.90;34.78;;;;;;;;;;5060098;27;94967;-72
2021/12/17 02:50:28;;;;;;;75.57;39.00;;;;;;;;;;5059584;27;93322;-72
2021/12/17 02:52:56;;;;;;;66.72;36.55;;;;;;;;;;5060163;27;95999;-72
2021/12/17 02:55:23;;;;;;;61.35;34.63;;;;;;;;;;5078135;27;93980;-72
2021/12/17 02:57:50;;;;;;;65.13;34.47;;;;;;;;;;5078353;27;92188;-72
2021/12/17 03:00:17;;;;;;;67.85;32.70;;;;;;;;;;5060281;27;94963;-72
2021/12/17 03:02:44;;;;;;;66.35;34.75;;;;;;;;;;5059779;27;95944;-72
2021/12/17 03:05:11;;;;;;;51.80;29.30;;;;;;;;;;5080206;27;92271;-72
2021/12/17 03:07:41;;;;;;;46.60;28.73;;;;;;;;;;5057982;27;98320;-72
2021/12/17 03:10:08;;;;;;;66.15;34.33;;;;;;;;;;5078012;27;92220;-72
2021/12/17 03:15:13;;;;;;;47.55;25.65;;;;;;;;;;5037041;28;93540;-72
2021/12/17 03:26:02;;;;;;;55.50;28.00;;;;;;;;;;5035889;28;93373;-72
2021/12/17 03:28:29;;;;;;;52.40;27.52;;;;;;;;;;5038837;28;94761;-72
2021/12/17 03:30:56;;;;;;;56.92;31.27;;;;;;;;;;5036000;28;92298;-72
2021/12/17 03:33:23;;;;;;;59.72;29.95;;;;;;;;;;5034246;28;95175;-72
2021/12/17 03:35:50;;;;;;;62.65;32.83;;;;;;;;;;5036744;27;93608;-72
2021/12/17 03:38:17;;;;;;;71.88;34.72;;;;;;;;;;5035307;28;92778;-72
2021/12/17 03:40:44;;;;;;;55.60;29.35;;;;;;;;;;5035608;28;95427;-72
2021/12/17 03:43:24;;;;;;;53.50;29.48;;;;;;;;;;5035344;28;94492;-72
2021/12/17 03:45:50;;;;;;;51.03;26.77;;;;;;;;;;5035460;28;92851;-72
2021/12/17 03:48:17;;;;;;;33.80;19.70;;;;;;;;;;5035576;28;95477;-71
2021/12/17 03:50:43;;;;;;;30.15;18.90;;;;;;;;;;5039196;28;94232;-72
2021/12/17 03:53:10;;;;;;;35.78;21.67;;;;;;;;;;5035310;28;94980;-72
2021/12/17 03:55:37;;;;;;;37.85;22.80;;;;;;;;;;5036532;28;93392;-72
2021/12/17 03:58:05;;;;;;;41.63;23.27;;;;;;;;;;5033927;28;95649;-72
2021/12/17 04:00:35;;;;;;;41.92;22.58;;;;;;;;;;5035385;28;97171;-72
2021/12/17 04:03:03;;;;;;;41.78;23.33;;;;;;;;;;5035430;28;95514;-72
2021/12/17 04:05:42;;;;;;;41.78;24.10;;;;;;;;;;5034916;28;92908;-72
2021/12/17 04:08:44;;;;;;;46.55;24.27;;;;;;;;;;4993520;28;93426;-72
2021/12/17 04:11:19;;;;;;;44.92;23.25;;;;;;;;;;5050116;27;93230;-72
2021/12/17 04:13:56;;;;;;;42.80;22.23;;;;;;;;;;5058245;27;95293;-72
2021/12/17 04:16:27;;;;;;;48.05;22.90;;;;;;;;;;5060637;27;94822;-72
2021/12/17 04:18:52;;;;;;;47.63;23.88;;;;;;;;;;5065835;27;92749;-72
2021/12/17 04:21:21;;;;;;;46.67;22.70;;;;;;;;;;5065583;27;94978;-72
2021/12/17 04:23:49;;;;;;;43.58;21.98;;;;;;;;;;5063663;27;97997;-72
2021/12/17 04:26:17;;;;;;;42.58;21.15;;;;;;;;;;5065177;27;92325;-73
2021/12/17 04:28:47;;;;;;;40.13;19.83;;;;;;;;;;5065509;27;95945;-72
2021/12/17 04:31:16;;;;;;;41.60;20.05;;;;;;;;;;5065431;27;95987;-72
2021/12/17 04:33:43;;;;;;;39.70;19.05;;;;;;;;;;5087028;27;92529;-72
2021/12/17 04:36:14;;;;;;;42.53;18.60;;;;;;;;;;5065191;27;95567;-72
2021/12/17 04:38:40;;;;;;;38.03;18.52;;;;;;;;;;5083730;27;92322;-72
2021/12/17 04:46:44;;;;;;;36.47;16.15;;;;;;;;;;5065051;27;92487;-72
2021/12/17 04:57:32;;;;;;;27.77;13.77;;;;;;;;;;5047708;27;95718;-72
2021/12/17 05:00:03;;;;;;;29.02;14.38;;;;;;;;;;5044538;27;92502;-72
2021/12/17 05:02:36;;;;;;;33.80;15.25;;;;;;;;;;5061606;27;95699;-72
2021/12/17 05:05:07;;;;;;;29.70;14.48;;;;;;;;;;5044534;27;95676;-72
2021/12/17 05:07:40;;;;;;;28.92;15.13;;;;;;;;;;5045166;27;92806;-72
2021/12/17 05:21:02;;;;;;;23.48;11.50;;;;;;;;;;5047568;27;95957;-72
2021/12/17 05:23:37;;;;;;;22.38;10.85;;;;;;;;;;5062751;27;93245;-72
2021/12/17 05:26:24;;;;;;;20.15;11.35;;;;;;;;;;5043595;27;94940;-72
2021/12/17 05:28:55;;;;;;;21.42;11.68;;;;;;;;;;5040085;27;93394;-72
2021/12/17 05:31:27;;;;;;;21.67;11.57;;;;;;;;;;5037987;27;95498;-73
2021/12/17 05:33:54;;;;;;;23.67;11.77;;;;;;;;;;5040084;27;95325;-72
2021/12/17 05:36:24;;;;;;;23.42;11.18;;;;;;;;;;5040546;27;92404;-72
2021/12/17 05:39:03;;;;;;;20.02;10.52;;;;;;;;;;5040993;27;96177;-72
2021/12/17 05:41:32;;;;;;;22.38;11.35;;;;;;;;;;5038417;27;98291;-72
2021/12/17 05:44:20;;;;;;;21.35;10.95;;;;;;;;;;5043718;27;92944;-72
2021/12/17 05:46:50;;;;;;;17.77;9.52;;;;;;;;;;5040636;27;96296;-73
2021/12/17 05:49:22;;;;;;;17.25;9.60;;;;;;;;;;5041226;27;93292;-72
2021/12/17 05:51:49;;;;;;;15.30;9.18;;;;;;;;;;5040816;27;96016;-72
2021/12/17 05:54:25;;;;;;;11.52;8.25;;;;;;;;;;5058244;27;95981;-73
2021/12/17 05:56:53;;;;;;;15.82;8.52;;;;;;;;;;5041614;27;92415;-73
2021/12/17 05:59:22;;;;;;;16.00;8.55;;;;;;;;;;5042112;27;94805;-73
2021/12/17 06:01:48;;;;;;;14.25;7.97;;;;;;;;;;5041075;27;95643;-72
2021/12/17 06:04:16;;;;;;;14.95;8.60;;;;;;;;;;5041333;27;92467;-73
2021/12/17 06:06:53;;;;;;;13.18;7.90;;;;;;;;;;5042621;27;96163;-73
2021/12/17 06:09:21;;;;;;;17.85;8.65;;;;;;;;;;5041093;27;92531;-73
2021/12/17 06:11:48;;;;;;;15.60;8.80;;;;;;;;;;5040621;27;95764;-72
2021/12/17 06:14:16;;;;;;;19.80;9.40;;;;;;;;;;5040953;27;95740;-72
2021/12/17 06:16:43;;;;;;;20.13;9.82;;;;;;;;;;5059362;27;92379;-72
2021/12/17 06:19:17;;;;;;;26.95;10.02;;;;;;;;;;5040597;27;96049;-72
2021/12/17 06:21:46;;;;;;;24.75;10.18;;;;;;;;;;5057015;27;95548;-72
2021/12/17 06:24:12;;;;;;;21.50;10.45;;;;;;;;;;5040638;27;93726;-72
2021/12/17 06:26:39;;;;;;;21.95;9.88;;;;;;;;;;5043342;27;93753;-72
2021/12/17 06:29:06;;;;;;;26.02;10.00;;;;;;;;;;5040863;27;92282;-72
2021/12/17 06:31:33;;;;;;;23.95;9.88;;;;;;;;;;5038403;27;95819;-72
2021/12/17 06:34:00;;;;;;;21.58;10.65;;;;;;;;;;5040661;27;96284;-71
2021/12/17 06:36:28;;;;;;;22.23;10.15;;;;;;;;;;5040038;27;92404;-72
2021/12/17 06:38:55;;;;;;;32.90;11.57;;;;;;;;;;5039838;27;96001;-72
2021/12/17 06:41:24;;;;;;;28.25;11.00;;;;;;;;;;5038523;27;94945;-74
2021/12/17 06:43:54;;;;;;;38.85;12.15;;;;;;;;;;5039802;27;92493;-72
2021/12/17 06:46:26;;;;;;;35.40;11.48;;;;;;;;;;5039563;27;95088;-73
2021/12/17 06:49:09;;;;;;;27.48;11.98;;;;;;;;;;5043218;27;92946;-73
2021/12/17 06:54:42;;;;;;;21.83;10.68;;;;;;;;;;5039583;27;95515;-71
2021/12/17 07:01:05;;;;;;;20.23;10.73;;;;;;;;;;5056776;27;96849;-71
2021/12/17 07:08:27;;;;;;;17.15;8.13;;;;;;;;;;5037062;27;92408;-72
2021/12/17 07:21:27;;;;;;;11.25;6.43;;;;;;;;;;5060319;27;92306;-72
2021/12/17 07:39:46;;;;;;;9.32;6.07;;;;;;;;;;5063198;27;95167;-71
2021/12/17 07:42:18;;;;;;;14.75;7.80;;;;;;;;;;5060037;27;92315;-72
2021/12/17 07:44:50;;;;;;;12.35;7.60;;;;;;;;;;5060308;27;95527;-72
2021/12/17 07:47:21;;;;;;;18.87;7.30;;;;;;;;;;5059645;27;95899;-72
2021/12/17 07:50:06;;;;;;;16.17;7.13;;;;;;;;;;5076631;27;92331;-73
2021/12/17 07:52:40;;;;;;;12.25;7.35;;;;;;;;;;5057688;27;95212;-73
2021/12/17 07:55:07;;;;;;;14.65;7.18;;;;;;;;;;5077512;27;93004;-73
2021/12/17 07:57:33;;;;;;;12.23;7.53;;;;;;;;;;5059443;27;92411;-72
2021/12/17 07:59:59;;;;;;;28.83;9.10;;;;;;;;;;5059542;27;95701;-74
2021/12/17 08:02:26;;;;;;;10.80;6.65;;;;;;;;;;5081050;27;93191;-71
2021/12/17 08:05:07;;;;;;;14.25;7.45;;;;;;;;;;5059868;27;94004;-71
2021/12/17 08:07:33;;;;;;;15.18;7.47;;;;;;;;;;5059208;27;95353;-72
2021/12/17 08:10:01;;;;;;;11.23;7.25;;;;;;;;;;5059956;27;91614;-72
2021/12/17 08:12:27;;;;;;;13.93;7.82;;;;;;;;;;5059271;27;95146;-71
2021/12/17 08:14:59;;;;;;;15.02;7.47;;;;;;;;;;5059249;27;95508;-71
2021/12/17 08:17:45;;;;;;;10.23;6.90;;;;;;;;;;5057856;27;94796;-71
2021/12/17 08:23:49;;;;;;;11.30;7.10;;;;;;;;;;5059210;27;95493;-71
2021/12/17 08:28:51;;;;;;;12.40;6.97;;;;;;;;;;5059056;27;93975;-73
2021/12/17 08:31:18;;;;;;;13.43;6.88;;;;;;;;;;5059500;27;92368;-72
2021/12/17 08:33:45;;;;;;;11.32;6.53;;;;;;;;;;5059414;27;95471;-72
2021/12/17 08:36:15;;;;;;;14.77;7.43;;;;;;;;;;5077747;27;92637;-72
2021/12/17 08:38:47;;;;;;;14.45;7.35;;;;;;;;;;5059101;27;92414;-72
2021/12/17 08:41:27;;;;;;;12.88;7.32;;;;;;;;;;5059181;27;96969;-72
2021/12/17 08:43:54;;;;;;;13.63;7.30;;;;;;;;;;5057427;27;97699;-72
2021/12/17 08:46:21;;;;;;;12.70;7.40;;;;;;;;;;5062129;27;93404;-72
2021/12/17 08:48:49;;;;;;;17.13;7.47;;;;;;;;;;5076249;27;93815;-72
2021/12/17 08:51:37;;;;;;;17.83;7.60;;;;;;;;;;5058759;27;92804;-72
2021/12/17 08:54:03;;;;;;;11.75;7.05;;;;;;;;;;5059204;27;94316;-72
2021/12/17 08:56:35;;;;;;;13.80;6.95;;;;;;;;;;5059033;27;96250;-73
2021/12/17 08:59:03;;;;;;;;;;;;;;;;;;5057709;27;93261;-72
2021/12/17 09:01:38;;;;;;;13.00;7.72;;;;;;;;;;5059450;27;95649;-73
2021/12/17 09:04:06;;;;;;;12.02;7.47;;;;;;;;;;5059922;27;95105;-72
2021/12/17 09:06:36;;;;;;;17.88;7.60;;;;;;;;;;5062496;27;92455;-71
2021/12/17 09:09:03;;;;;;;13.95;7.63;;;;;;;;;;5081813;27;95066;-72
2021/12/17 09:11:32;;;;;;;12.70;7.57;;;;;;;;;;5061861;27;93326;-73
2021/12/17 09:14:04;;;;;;;17.27;8.10;;;;;;;;;;5062391;27;95323;-73
2021/12/17 09:16:48;;;;;;;13.40;7.70;;;;;;;;;;5062296;27;95958;-73
2021/12/17 09:19:16;;;;;;;11.35;6.78;;;;;;;;;;5062324;27;92293;-73
2021/12/17 09:21:52;;;;;;;7.85;5.60;;;;;;;;;;5062102;27;95224;-73
2021/12/17 09:24:27;;;;;;;10.15;6.07;;;;;;;;;;5062091;27;95659;-73
2021/12/17 09:27:11;;;;;;;6.90;5.47;;;;;;;;;;5077839;27;91614;-73
2021/12/17 09:29:56;;;;;;;16.10;7.03;;;;;;;;;;5078589;27;92248;-73
2021/12/17 09:32:22;;;;;;;19.77;7.10;;;;;;;;;;5083509;27;93704;-74
2021/12/17 09:34:50;;;;;;;10.70;6.35;;;;;;;;;;5078768;27;94812;-74
2021/12/17 09:37:17;;;;;;;10.57;6.10;;;;;;;;;;5079749;27;93468;-74
2021/12/17 09:39:44;;;;;;;15.32;6.15;;;;;;;;;;5080230;27;92379;-73
2021/12/17 09:42:12;;;;;;;8.50;5.15;;;;;;;;;;5080352;27;93102;-74
2021/12/17 09:44:41;;;;;;;19.08;6.55;;;;;;;;;;5080114;27;93021;-74
2021/12/17 09:47:07;;;;;;;12.88;5.90;;;;;;;;;;5080316;27;92194;-73
2021/12/17 09:49:34;;;;;;;9.65;5.55;;;;;;;;;;5080180;27;93492;-74
2021/12/17 09:52:01;;;;;;;9.45;5.63;;;;;;;;;;5080233;27;92890;-73
2021/12/17 09:54:27;;;;;;;9.38;6.30;;;;;;;;;;5082969;27;92240;-71
2021/12/17 09:56:54;;;;;;;8.13;5.13;;;;;;;;;;5079701;27;93477;-74
2021/12/17 09:59:20;;;;;;;24.40;7.10;;;;;;;;;;5078034;27;94689;-72
2021/12/17 10:01:47;;;;;;;7.38;5.28;;;;;;;;;;5079839;27;95674;-72
2021/12/17 10:04:31;;;;;;;8.70;5.93;;;;;;;;;;5079862;27;93603;-74
2021/12/17 10:07:16;;;;;;;25.27;7.38;;;;;;;;;;5079649;27;93578;-77
2021/12/17 10:09:46;;;;;;;9.48;5.85;;;;;;;;;;5079588;27;93782;-74
2021/12/17 10:12:13;;;;;;;7.95;5.57;;;;;;;;;;5079360;27;93574;-76
2021/12/17 10:14:41;;;;;;;12.88;5.68;;;;;;;;;;5079400;27;92135;-74
2021/12/17 10:17:08;;;;;;;19.38;6.13;;;;;;;;;;5082637;27;93627;-75
2021/12/17 10:19:42;;;;;;;6.47;4.97;;;;;;;;;;5079790;27;92299;-73
2021/12/17 10:22:09;;;;;;;12.00;5.93;;;;;;;;;;5079366;27;93394;-74
2021/12/17 10:24:38;;;;;;;19.70;5.75;;;;;;;;;;5077546;27;96182;-74
2021/12/17 10:27:17;;;;;;;16.52;6.10;;;;;;;;;;5061813;27;92403;-74
2021/12/17 10:29:45;;;;;;;16.98;6.72;;;;;;;;;;5079428;27;92855;-74
2021/12/17 10:32:15;;;;;;;10.18;5.28;;;;;;;;;;5079162;27;93838;-74
2021/12/17 10:35:00;;;;;;;10.10;4.88;;;;;;;;;;5079512;27;92396;-74
2021/12/17 10:37:31;;;;;;;6.30;4.70;;;;;;;;;;5082388;27;93294;-74
2021/12/17 10:39:58;;;;;;;7.10;5.25;;;;;;;;;;5079099;27;92358;-75
2021/12/17 10:42:37;;;;;;;8.50;4.82;;;;;;;;;;5079874;27;93243;-74
2021/12/17 10:45:11;;;;;;;11.02;4.97;;;;;;;;;;5079368;27;93576;-74
2021/12/17 10:47:46;;;;;;;6.68;4.70;;;;;;;;;;5079081;27;92337;-74
2021/12/17 10:50:22;;;;;;;4.70;4.18;;;;;;;;;;5077638;27;94580;-74
2021/12/17 10:52:55;;;;;;;6.43;5.07;;;;;;;;;;5078987;27;93588;-75
2021/12/17 10:55:23;;;;;;;3.88;3.58;;;;;;;;;;5078817;27;92749;-74
2021/12/17 10:57:50;;;;;;;3.70;3.40;;;;;;;;;;5078777;27;93292;-75
2021/12/17 11:00:16;;;;;;;4.47;3.40;;;;;;;;;;5063636;27;95410;-74
2021/12/17 11:02:50;;;;;;;3.42;2.70;;;;;;;;;;5078876;27;93350;-74
2021/12/17 11:05:17;;;;;;;2.47;2.28;;;;;;;;;;5078775;27;92965;-76
2021/12/17 11:07:44;;;;;;;2.72;2.53;;;;;;;;;;5079335;27;92125;-74
2021/12/17 11:10:11;;;;;;;3.70;3.40;;;;;;;;;;5078558;27;92285;-74
2021/12/17 11:12:39;;;;;;;3.78;3.28;;;;;;;;;;5078463;27;93626;-74
2021/12/17 11:15:12;;;;;;;4.10;3.72;;;;;;;;;;5077259;27;94910;-73
2021/12/17 11:17:39;;;;;;;6.93;3.92;;;;;;;;;;5078125;27;95785;-75
2021/12/17 11:20:10;;;;;;;3.40;3.10;;;;;;;;;;5060455;27;94533;-74
2021/12/17 11:22:38;;;;;;;3.47;3.20;;;;;;;;;;5081748;27;92361;-75
2021/12/17 11:25:05;;;;;;;3.10;2.70;;;;;;;;;;5078298;27;93974;-74
2021/12/17 11:27:32;;;;;;;4.20;2.60;;;;;;;;;;5077793;27;92354;-74
2021/12/17 11:30:00;;;;;;;3.40;2.47;;;;;;;;;;5077976;27;92799;-75
2021/12/17 11:32:26;;;;;;;6.65;2.80;;;;;;;;;;5078775;27;92547;-75
2021/12/17 11:34:53;;;;;;;2.85;2.60;;;;;;;;;;5078492;27;92951;-74
2021/12/17 11:37:20;;;;;;;2.88;2.65;;;;;;;;;;5078373;27;93755;-74
2021/12/17 11:39:48;;;;;;;2.53;2.33;;;;;;;;;;5076521;27;95332;-75
2021/12/17 11:42:25;;;;;;;3.10;2.80;;;;;;;;;;5078430;27;92242;-75
2021/12/17 11:45:22;;;;;;;2.90;2.70;;;;;;;;;;5081137;27;93428;-75
2021/12/17 11:47:38;;;;;;;3.10;2.80;;;;;;;;;;5041424;27;93308;-76
2021/12/17 11:50:06;;;;;;;3.28;2.92;;;;;;;;;;5078304;27;93019;-74
2021/12/17 11:52:35;;;;;;;3.28;2.72;;;;;;;;;;5077838;27;93530;-74
2021/12/17 11:55:20;;;;;;;3.50;3.20;;;;;;;;;;5077670;27;92398;-75
2021/12/17 11:57:48;;;;;;;3.75;3.38;;;;;;;;;;5078445;27;93350;-74
2021/12/17 12:00:15;;;;;;;3.65;3.35;;;;;;;;;;5077788;27;93599;-73
2021/12/17 12:02:55;;;;;;;3.88;3.47;;;;;;;;;;5078167;27;92259;-73
2021/12/17 12:05:36;;;;;;;4.07;3.75;;;;;;;;;;5076471;27;94673;-74
2021/12/17 12:08:22;;;;;;;3.40;3.10;;;;;;;;;;5080922;27;93777;-73
2021/12/17 12:11:06;;;;;;;3.05;2.85;;;;;;;;;;5077409;27;93067;-73
2021/12/17 12:13:36;;;;;;;4.07;3.63;;;;;;;;;;5077802;27;94084;-73
2021/12/17 12:16:04;;;;;;;5.07;3.60;;;;;;;;;;5077622;27;93271;-73
2021/12/17 12:18:43;;;;;;;3.53;3.22;;;;;;;;;;5059585;27;94930;-73
2021/12/17 12:21:10;;;;;;;3.72;3.42;;;;;;;;;;5059715;27;93764;-73
2021/12/17 12:23:37;;;;;;;3.50;3.20;;;;;;;;;;5060403;27;91609;-73
2021/12/17 12:28:48;;;;;;;5.22;3.53;;;;;;;;;;5076932;27;93652;-74
2021/12/17 12:31:27;;;;;;;3.70;3.40;;;;;;;;;;5079359;27;94629;-73
2021/12/17 12:34:03;;;;;;;4.00;3.60;;;;;;;;;;5077304;27;93694;-73
2021/12/17 12:36:50;;;;;;;3.58;3.35;;;;;;;;;;5077578;27;92278;-73
2021/12/17 12:39:18;;;;;;;3.95;3.58;;;;;;;;;;5080991;27;93455;-73
2021/12/17 12:41:48;;;;;;;3.15;2.95;;;;;;;;;;5081053;27;93605;-73
2021/12/17 12:44:15;;;;;;;4.18;2.95;;;;;;;;;;5081177;27;92770;-73
2021/12/17 12:46:49;;;;;;;3.20;3.00;;;;;;;;;;5081115;27;93881;-73
2021/12/17 12:49:34;;;;;;;3.10;2.90;;;;;;;;;;5080859;27;92357;-74
2021/12/17 12:52:21;;;;;;;3.25;3.05;;;;;;;;;;5084238;27;92180;-73
2021/12/17 12:54:48;;;;;;;2.67;2.50;;;;;;;;;;5080766;27;93505;-73
2021/12/17 12:57:23;;;;;;;2.88;2.70;;;;;;;;;;5079249;27;94667;-73
2021/12/17 12:59:51;;;;;;;4.20;3.80;;;;;;;;;;5080301;27;95912;-72
2021/12/17 13:02:17;;;;;;;3.28;3.08;;;;;;;;;;5080598;27;92247;-72
2021/12/17 13:04:44;;;;;;;3.45;3.20;;;;;;;;;;5080883;27;92139;-72
2021/12/17 13:07:13;;;;;;;3.08;2.88;;;;;;;;;;5064029;27;93370;-72
2021/12/17 13:09:43;;;;;;;3.25;3.05;;;;;;;;;;5060276;27;93683;-73
2021/12/17 13:12:10;;;;;;;3.40;3.20;;;;;;;;;;5059680;27;92317;-72
2021/12/17 13:14:43;;;;;;;3.63;3.08;;;;;;;;;;5063539;27;91833;-72
2021/12/17 13:17:41;;;;;;;3.80;2.90;;;;;;;;;;5060337;27;92361;-74
2021/12/17 13:20:31;;;;;;;3.50;3.20;;;;;;;;;;5059917;27;93219;-74
2021/12/17 13:22:59;;;;;;;3.13;2.97;;;;;;;;;;5057873;27;95446;-74
2021/12/17 13:25:26;;;;;;;3.65;2.67;;;;;;;;;;5060233;27;92100;-74
2021/12/17 13:27:53;;;;;;;2.90;2.75;;;;;;;;;;5059759;27;93550;-74
2021/12/17 13:30:27;;;;;;;3.30;3.10;;;;;;;;;;5059859;27;93502;-74
2021/12/17 13:32:54;;;;;;;4.85;3.00;;;;;;;;;;5059999;27;92139;-74
2021/12/17 13:35:22;;;;;;;4.60;3.33;;;;;;;;;;5059460;27;93679;-73
2021/12/17 13:37:52;;;;;;;3.30;3.03;;;;;;;;;;5062502;27;93582;-74
2021/12/17 13:40:23;;;;;;;5.45;3.58;;;;;;;;;;5060273;27;92788;-74
2021/12/17 13:42:49;;;;;;;5.97;3.30;;;;;;;;;;5059640;27;93943;-74
2021/12/17 13:45:17;;;;;;;4.00;3.70;;;;;;;;;;5059783;27;92336;-74
2021/12/17 13:47:45;;;;;;;4.43;4.03;;;;;;;;;;5057560;27;94707;-74
2021/12/17 13:50:19;;;;;;;5.32;4.93;;;;;;;;;;5058761;27;93379;-74
2021/12/17 13:52:45;;;;;;;4.70;4.30;;;;;;;;;;5059663;27;92215;-74
2021/12/17 13:55:13;;;;;;;4.68;4.38;;;;;;;;;;5059557;27;92792;-74
2021/12/17 13:57:41;;;;;;;5.63;4.22;;;;;;;;;;5066794;27;93687;-75
2021/12/17 14:00:07;;;;;;;4.80;4.40;;;;;;;;;;5103557;27;92441;-76
2021/12/17 14:02:37;;;;;;;6.43;4.40;;;;;;;;;;5097463;27;93618;-74
2021/12/17 14:05:03;;;;;;;8.73;4.68;;;;;;;;;;5101421;27;91580;-74
2021/12/17 14:07:31;;;;;;;8.90;4.80;;;;;;;;;;5100523;27;92524;-75
2021/12/17 14:09:59;;;;;;;5.40;4.93;;;;;;;;;;5100275;27;93581;-74
2021/12/17 14:12:29;;;;;;;5.05;4.60;;;;;;;;;;5098326;27;94674;-74
2021/12/17 14:15:17;;;;;;;5.47;5.07;;;;;;;;;;5100137;27;95767;-74
2021/12/17 14:17:45;;;;;;;5.55;5.13;;;;;;;;;;5099933;27;93624;-74
2021/12/17 14:20:13;;;;;;;5.97;5.40;;;;;;;;;;5100454;27;92406;-74
2021/12/17 14:22:42;;;;;;;5.82;5.32;;;;;;;;;;5103248;27;93396;-74
2021/12/17 14:25:27;;;;;;;9.05;5.68;;;;;;;;;;5100052;27;92354;-74
2021/12/17 14:27:54;;;;;;;6.03;5.53;;;;;;;;;;5100286;27;92808;-74
2021/12/17 14:30:35;;;;;;;5.55;5.05;;;;;;;;;;5100297;27;92881;-74
2021/12/17 14:33:12;;;;;;;6.45;5.45;;;;;;;;;;5100478;27;93093;-74
2021/12/17 14:35:43;;;;;;;5.88;5.38;;;;;;;;;;5099811;27;93437;-75
2021/12/17 14:38:09;;;;;;;6.37;5.77;;;;;;;;;;5098157;27;95674;-74
2021/12/17 14:40:44;;;;;;;7.45;6.75;;;;;;;;;;5100146;27;92273;-73
2021/12/17 14:43:22;;;;;;;7.38;6.78;;;;;;;;;;5099821;27;92935;-74
2021/12/17 14:45:59;;;;;;;6.97;6.38;;;;;;;;;;5102645;27;93435;-73
2021/12/17 14:48:35;;;;;;;6.93;6.40;;;;;;;;;;5099729;27;92934;-74
2021/12/17 15:02:11;;;;;;;8.15;7.45;;;;;;;;;;5098499;27;92263;-75
2021/12/17 15:04:37;;;;;;;8.25;7.47;;;;;;;;;;5097928;27;94616;-74
2021/12/17 15:07:04;;;;;;;9.02;7.85;;;;;;;;;;5102014;27;93736;-73
2021/12/17 15:09:31;;;;;;;9.75;7.45;;;;;;;;;;5099446;27;93832;-74
2021/12/17 15:12:00;;;;;;;10.50;9.50;;;;;;;;;;5099104;27;93498;-78
2021/12/17 15:14:26;;;;;;;8.50;7.80;;;;;;;;;;5099495;27;92409;-75
2021/12/17 15:16:53;;;;;;;9.43;8.32;;;;;;;;;;5099547;27;93404;-76
2021/12/17 15:19:19;;;;;;;10.35;8.73;;;;;;;;;;5098900;27;92907;-74
2021/12/17 15:21:46;;;;;;;10.55;8.60;;;;;;;;;;5099377;27;91648;-75
2021/12/17 15:24:32;;;;;;;10.20;9.18;;;;;;;;;;5081565;27;94140;-73
2021/12/17 15:26:58;;;;;;;9.35;8.43;;;;;;;;;;5099119;27;93299;-73
2021/12/17 15:29:27;;;;;;;9.68;8.73;;;;;;;;;;5100741;27;94702;-74
2021/12/17 15:31:53;;;;;;;12.75;8.45;;;;;;;;;;5099050;27;93752;-75
2021/12/17 15:34:20;;;;;;;9.98;8.98;;;;;;;;;;5098939;27;92649;-74
2021/12/17 15:36:46;;;;;;;12.55;9.82;;;;;;;;;;5080621;27;94465;-74
2021/12/17 15:39:12;;;;;;;10.85;8.98;;;;;;;;;;5098832;27;93237;-74
2021/12/17 15:41:41;;;;;;;10.38;9.27;;;;;;;;;;5099029;27;92289;-74
2021/12/17 15:44:11;;;;;;;12.20;10.00;;;;;;;;;;5099011;27;93288;-74
2021/12/17 15:46:37;;;;;;;10.30;8.63;;;;;;;;;;5097987;27;93026;-73
2021/12/17 15:49:05;;;;;;;12.07;9.25;;;;;;;;;;5098816;27;92328;-73
2021/12/17 15:51:32;;;;;;;12.18;9.60;;;;;;;;;;5101802;27;93737;-74
2021/12/17 15:53:58;;;;;;;13.10;9.52;;;;;;;;;;5097202;27;94745;-74
2021/12/17 15:56:25;;;;;;;13.25;9.77;;;;;;;;;;5098827;27;96023;-74
2021/12/17 15:58:51;;;;;;;12.55;9.57;;;;;;;;;;5098684;27;94563;-74
2021/12/17 16:01:18;;;;;;;15.73;11.07;;;;;;;;;;5079867;27;92351;-74
2021/12/17 16:03:45;;;;;;;15.43;11.15;;;;;;;;;;5097402;27;93652;-74
2021/12/17 16:06:11;;;;;;;17.67;11.15;;;;;;;;;;5097669;27;93460;-74
2021/12/17 16:08:43;;;;;;;16.40;11.07;;;;;;;;;;5097922;27;92218;-76
2021/12/17 16:11:31;;;;;;;15.00;10.10;;;;;;;;;;5098060;27;93523;-74
2021/12/17 16:22:13;;;;;;;19.65;11.15;;;;;;;;;;5096997;27;92282;-73
2021/12/17 16:24:39;;;;;;;14.15;10.88;;;;;;;;;;5097623;27;93937;-73
2021/12/17 16:27:06;;;;;;;12.88;10.02;;;;;;;;;;5094332;27;93075;-74
2021/12/17 16:29:32;;;;;;;13.57;10.63;;;;;;;;;;5097388;27;92473;-73
2021/12/17 16:31:58;;;;;;;14.30;11.75;;;;;;;;;;5097776;27;93331;-74
2021/12/17 16:34:25;;;;;;;15.40;11.30;;;;;;;;;;5097395;27;93438;-74
2021/12/17 16:36:51;;;;;;;19.27;11.80;;;;;;;;;;5100520;27;91683;-74
2021/12/17 16:39:18;;;;;;;18.08;12.88;;;;;;;;;;5097346;27;94073;-74
2021/12/17 16:41:45;;;;;;;15.63;12.52;;;;;;;;;;5097186;27;92196;-74
2021/12/17 16:44:15;;;;;;;16.58;12.30;;;;;;;;;;5095666;27;94673;-74
2021/12/17 16:49:11;;;;;;;18.55;14.27;;;;;;;;;;5096927;27;92315;-76
2021/12/17 16:51:38;;;;;;;18.17;14.02;;;;;;;;;;5097304;27;93222;-76
2021/12/17 16:54:05;;;;;;;19.15;13.90;;;;;;;;;;5097317;27;93551;-76
2021/12/17 16:56:31;;;;;;;19.95;14.07;;;;;;;;;;5097245;27;92303;-75
2021/12/17 16:58:58;;;;;;;19.33;14.13;;;;;;;;;;5061050;27;93404;-75
2021/12/17 17:01:28;;;;;;;15.88;11.80;;;;;;;;;;5055259;27;91625;-75
2021/12/17 17:03:55;;;;;;;13.07;10.73;;;;;;;;;;5055994;27;93051;-75
2021/12/17 17:06:23;;;;;;;17.45;13.15;;;;;;;;;;5055886;27;93912;-74
2021/12/17 17:08:49;;;;;;;15.98;12.93;;;;;;;;;;5054478;27;94713;-74
2021/12/17 17:11:17;;;;;;;18.15;13.57;;;;;;;;;;5055032;27;94042;-74
2021/12/17 17:13:43;;;;;;;16.55;13.05;;;;;;;;;;5055657;27;93061;-75
2021/12/17 17:16:09;;;;;;;16.17;12.15;;;;;;;;;;5037384;27;92421;-74
2021/12/17 17:18:37;;;;;;;17.23;12.18;;;;;;;;;;5070499;27;93743;-75
2021/12/17 17:21:04;;;;;;;16.30;12.05;;;;;;;;;;5076173;27;92340;-73
2021/12/17 17:23:33;;;;;;;17.65;13.52;;;;;;;;;;5076619;27;92918;-74
2021/12/17 17:26:00;;;;;;;18.48;12.73;;;;;;;;;;5079007;27;93103;-73
2021/12/17 17:28:26;;;;;;;17.52;12.75;;;;;;;;;;5079729;27;92141;-74
2021/12/17 17:30:54;;;;;;;17.88;14.10;;;;;;;;;;5079656;27;93890;-75
2021/12/17 17:33:21;;;;;;;18.27;14.18;;;;;;;;;;5077556;27;96167;-75
2021/12/17 17:35:48;;;;;;;21.05;14.88;;;;;;;;;;5078471;27;92336;-75
2021/12/17 17:38:14;;;;;;;19.83;14.57;;;;;;;;;;5079401;27;93407;-75
2021/12/17 17:40:41;;;;;;;21.30;14.60;;;;;;;;;;5082187;27;93058;-74
2021/12/17 17:43:09;;;;;;;19.88;14.50;;;;;;;;;;5079526;27;94044;-75
2021/12/17 17:45:36;;;;;;;23.08;15.02;;;;;;;;;;5079139;27;95135;-75
2021/12/17 17:48:04;;;;;;;22.02;14.95;;;;;;;;;;5079485;27;92220;-74
2021/12/17 17:50:32;;;;;;;22.52;15.30;;;;;;;;;;5079332;27;93857;-77
2021/12/17 17:52:59;;;;;;;22.83;15.63;;;;;;;;;;5060599;27;97303;-74
2021/12/17 17:55:26;;;;;;;23.27;16.55;;;;;;;;;;5079474;27;92888;-74
2021/12/17 17:57:52;;;;;;;24.48;16.27;;;;;;;;;;5077707;27;94616;-75
2021/12/17 18:00:19;;;;;;;21.48;15.40;;;;;;;;;;5079004;27;93891;-75
2021/12/17 18:02:46;;;;;;;20.13;14.23;;;;;;;;;;5082137;27;92733;-75